Time;durP1;ratioP1;P1;durP2;ratioP2;P2;SDS_P1;SDS_P2;PMS_P1;PMS_P2;Temp;Humidity;BMP_temperature;BMP_pressure;BME280_temperature;BME280_humidity;BME280_pressure;Samples;Min_cycle;Max_cycle;Signal;HPM_P1;HPM_P2
2023/08/22 00:00:41;;;;;;;3.25;1.98;;;;;;;;;;5018588;28;20026;-61
2023/08/22 00:03:06;;;;;;;2.88;1.98;;;;;;;;;;5018292;28;20080;-61
2023/08/22 00:05:32;;;;;;;3.75;2.00;;;;;;;;;;5018108;28;20507;-60
2023/08/22 00:07:59;;;;;;;3.33;2.50;;;;;;;;;;5018464;28;20026;-60
2023/08/22 00:10:25;;;;;;;3.90;2.28;;;;;;;;;;5018171;28;20435;-61
2023/08/22 00:12:50;;;;;;;3.97;2.67;;;;;;;;;;5018382;28;20026;-60
2023/08/22 00:15:16;;;;;;;2.47;1.98;;;;;;;;;;5018114;28;20384;-60
2023/08/22 00:17:42;;;;;;;3.53;2.15;;;;;;;;;;5017739;28;20079;-60
2023/08/22 00:20:08;;;;;;;3.28;2.10;;;;;;;;;;5017805;28;20022;-60
2023/08/22 00:22:35;;;;;;;3.10;2.00;;;;;;;;;;5034374;28;20025;-60
2023/08/22 00:25:01;;;;;;;3.10;1.90;;;;;;;;;;5034604;28;20033;-60
2023/08/22 00:27:27;;;;;;;3.10;1.95;;;;;;;;;;5018103;28;20025;-60
2023/08/22 00:29:53;;;;;;;2.72;2.20;;;;;;;;;;5018081;28;20361;-60
2023/08/22 00:32:18;;;;;;;2.25;1.92;;;;;;;;;;5018080;28;20415;-60
2023/08/22 00:34:44;;;;;;;3.38;2.08;;;;;;;;;;5018035;28;20071;-60
2023/08/22 00:37:09;;;;;;;3.92;2.33;;;;;;;;;;5017899;28;20488;-60
2023/08/22 00:39:35;;;;;;;3.05;1.90;;;;;;;;;;5017856;28;20022;-60
2023/08/22 00:42:01;;;;;;;3.67;2.40;;;;;;;;;;5017673;28;20529;-61
2023/08/22 00:44:27;;;;;;;3.42;2.20;;;;;;;;;;5034267;28;20035;-60
2023/08/22 00:46:52;;;;;;;3.30;1.80;;;;;;;;;;5017664;28;20108;-60
2023/08/22 00:49:18;;;;;;;3.13;2.15;;;;;;;;;;5017612;28;20079;-60
2023/08/22 00:51:44;;;;;;;2.90;2.05;;;;;;;;;;5017602;28;20029;-60
2023/08/22 00:54:10;;;;;;;2.85;1.88;;;;;;;;;;5017655;28;20022;-60
2023/08/22 00:56:36;;;;;;;2.70;2.00;;;;;;;;;;5017569;28;20048;-60
2023/08/22 00:59:05;;;;;;;3.15;2.05;;;;;;;;;;5017453;28;20116;-61
2023/08/22 01:01:31;;;;;;;3.17;2.00;;;;;;;;;;5017318;28;20029;-61
2023/08/22 01:03:56;;;;;;;3.55;2.00;;;;;;;;;;5017327;28;20038;-60
2023/08/22 01:06:34;;;;;;;3.55;2.28;;;;;;;;;;5017380;28;20025;-60
2023/08/22 01:09:15;;;;;;;3.42;2.10;;;;;;;;;;5017301;28;20048;-60
2023/08/22 01:11:43;;;;;;;2.50;1.95;;;;;;;;;;5014361;28;20060;-60
2023/08/22 01:14:10;;;;;;;3.38;2.30;;;;;;;;;;5000973;28;20036;-61
2023/08/22 01:16:36;;;;;;;3.25;2.17;;;;;;;;;;5017217;28;20148;-60
2023/08/22 01:19:04;;;;;;;3.10;2.00;;;;;;;;;;5016793;28;20033;-60
2023/08/22 01:21:42;;;;;;;4.63;2.03;;;;;;;;;;5033423;28;20033;-60
2023/08/22 01:24:07;;;;;;;3.38;2.10;;;;;;;;;;5017038;28;20036;-60
2023/08/22 01:26:34;;;;;;;2.67;1.80;;;;;;;;;;5016991;28;20380;-60
2023/08/22 01:29:06;;;;;;;2.78;1.98;;;;;;;;;;5016896;28;20025;-61
2023/08/22 01:31:58;;;;;;;3.28;2.20;;;;;;;;;;5000619;28;20128;-61
2023/08/22 01:34:30;;;;;;;2.60;1.90;;;;;;;;;;5010769;28;20033;-61
2023/08/22 01:36:56;;;;;;;3.38;1.90;;;;;;;;;;5000413;28;20109;-61
2023/08/22 01:39:23;;;;;;;3.65;2.30;;;;;;;;;;5000447;28;20044;-60
2023/08/22 01:41:48;;;;;;;4.60;2.50;;;;;;;;;;5016321;28;20025;-60
2023/08/22 01:44:14;;;;;;;3.72;2.00;;;;;;;;;;5016657;28;20040;-61
2023/08/22 01:46:39;;;;;;;2.85;2.10;;;;;;;;;;5016638;28;20029;-61
2023/08/22 01:49:05;;;;;;;2.45;1.85;;;;;;;;;;5016603;28;20059;-61
2023/08/22 01:51:31;;;;;;;3.15;2.17;;;;;;;;;;5016640;28;20622;-61
2023/08/22 01:53:56;;;;;;;3.75;2.15;;;;;;;;;;5016539;28;20048;-61
2023/08/22 01:56:22;;;;;;;3.15;2.30;;;;;;;;;;5016543;28;20030;-61
2023/08/22 01:58:47;;;;;;;3.20;2.17;;;;;;;;;;5016463;28;20026;-60
2023/08/22 02:01:13;;;;;;;2.85;2.20;;;;;;;;;;5016397;28;20027;-60
2023/08/22 02:03:42;;;;;;;2.85;2.00;;;;;;;;;;5016307;28;20087;-61
2023/08/22 02:06:08;;;;;;;3.65;2.17;;;;;;;;;;5032587;28;20083;-60
2023/08/22 02:08:34;;;;;;;3.47;2.28;;;;;;;;;;5016321;28;20056;-60
2023/08/22 02:10:59;;;;;;;3.58;1.95;;;;;;;;;;5016229;28;20021;-62
2023/08/22 02:13:25;;;;;;;2.80;1.80;;;;;;;;;;5016320;28;20045;-61
2023/08/22 02:15:51;;;;;;;2.90;1.83;;;;;;;;;;5016265;28;20026;-61
2023/08/22 02:18:16;;;;;;;3.25;2.00;;;;;;;;;;5015974;28;20021;-61
2023/08/22 02:20:42;;;;;;;2.85;1.98;;;;;;;;;;5033357;28;20013;-61
2023/08/22 02:23:08;;;;;;;3.22;2.10;;;;;;;;;;5015856;28;20029;-61
2023/08/22 02:25:33;;;;;;;3.03;2.00;;;;;;;;;;5016172;28;20074;-60
2023/08/22 02:27:59;;;;;;;2.85;1.80;;;;;;;;;;5015993;28;20021;-61
2023/08/22 02:30:25;;;;;;;2.60;2.15;;;;;;;;;;5016113;28;20029;-60
2023/08/22 02:32:50;;;;;;;4.05;2.00;;;;;;;;;;5016081;28;20037;-61
2023/08/22 02:35:16;;;;;;;3.08;1.75;;;;;;;;;;5016006;28;20527;-61
2023/08/22 02:37:42;;;;;;;2.53;1.80;;;;;;;;;;5016033;28;20040;-60
2023/08/22 02:40:09;;;;;;;3.40;2.00;;;;;;;;;;5016011;28;20026;-60
2023/08/22 02:42:35;;;;;;;2.42;2.08;;;;;;;;;;5035981;28;20029;-62
2023/08/22 02:45:00;;;;;;;3.10;2.13;;;;;;;;;;5020075;28;20025;-61
2023/08/22 02:47:26;;;;;;;4.05;2.22;;;;;;;;;;5019963;28;20091;-61
2023/08/22 02:49:51;;;;;;;2.40;1.80;;;;;;;;;;5019785;28;20021;-62
2023/08/22 02:52:18;;;;;;;3.58;2.10;;;;;;;;;;5019859;28;20032;-61
2023/08/22 02:54:43;;;;;;;3.40;2.10;;;;;;;;;;5019799;28;20033;-62
2023/08/22 02:57:09;;;;;;;3.30;2.20;;;;;;;;;;5019818;28;20030;-62
2023/08/22 02:59:34;;;;;;;3.25;2.20;;;;;;;;;;5019792;28;20071;-62
2023/08/22 03:02:00;;;;;;;3.10;2.00;;;;;;;;;;5019627;28;20033;-63
2023/08/22 03:04:25;;;;;;;2.67;1.95;;;;;;;;;;5019391;28;20068;-61
2023/08/22 03:06:51;;;;;;;3.05;2.10;;;;;;;;;;5019660;28;20033;-63
2023/08/22 03:09:16;;;;;;;2.65;1.95;;;;;;;;;;5019635;28;20032;-61
2023/08/22 03:11:42;;;;;;;3.17;1.95;;;;;;;;;;5019453;28;20446;-61
2023/08/22 03:14:07;;;;;;;3.10;2.05;;;;;;;;;;5019487;28;20021;-61
2023/08/22 03:16:33;;;;;;;3.25;1.90;;;;;;;;;;5019488;28;20037;-62
2023/08/22 03:18:58;;;;;;;3.35;2.13;;;;;;;;;;5019442;28;20018;-61
2023/08/22 03:21:24;;;;;;;2.88;1.92;;;;;;;;;;5019312;28;20036;-61
2023/08/22 03:23:50;;;;;;;2.70;2.08;;;;;;;;;;5003023;28;20040;-63
2023/08/22 03:26:15;;;;;;;2.97;2.15;;;;;;;;;;5019298;28;20047;-61
2023/08/22 03:28:41;;;;;;;2.78;2.00;;;;;;;;;;5019198;28;20034;-61
2023/08/22 03:31:06;;;;;;;3.75;2.13;;;;;;;;;;5019191;28;20028;-61
2023/08/22 03:33:33;;;;;;;3.75;2.38;;;;;;;;;;5019075;28;20030;-60
2023/08/22 03:35:58;;;;;;;2.85;1.90;;;;;;;;;;5018912;28;20022;-60
2023/08/22 03:38:25;;;;;;;2.78;2.00;;;;;;;;;;5019065;28;20156;-60
2023/08/22 03:40:54;;;;;;;3.10;1.95;;;;;;;;;;5018986;28;20060;-60
2023/08/22 03:43:20;;;;;;;2.22;1.80;;;;;;;;;;5018642;28;20030;-60
2023/08/22 03:45:45;;;;;;;3.25;2.20;;;;;;;;;;5035366;28;20036;-61
2023/08/22 03:48:11;;;;;;;2.58;1.95;;;;;;;;;;5018880;28;20029;-61
2023/08/22 03:50:40;;;;;;;2.42;1.92;;;;;;;;;;5018831;28;20021;-60
2023/08/22 03:53:06;;;;;;;2.50;1.73;;;;;;;;;;5001159;28;20033;-61
2023/08/22 03:55:32;;;;;;;3.28;2.10;;;;;;;;;;5018639;28;20463;-61
2023/08/22 03:57:58;;;;;;;2.63;1.98;;;;;;;;;;5018666;28;20028;-61
2023/08/22 04:00:24;;;;;;;3.30;2.03;;;;;;;;;;5018618;28;20033;-61
2023/08/22 04:02:53;;;;;;;3.30;2.03;;;;;;;;;;5018503;28;20087;-61
2023/08/22 04:05:18;;;;;;;4.07;2.40;;;;;;;;;;5018532;28;20135;-61
2023/08/22 04:07:44;;;;;;;2.45;2.05;;;;;;;;;;5018545;28;20062;-60
2023/08/22 04:10:09;;;;;;;3.97;2.42;;;;;;;;;;5018496;28;20032;-61
2023/08/22 04:12:35;;;;;;;3.92;2.10;;;;;;;;;;5018404;28;20029;-62
2023/08/22 04:15:00;;;;;;;2.78;2.00;;;;;;;;;;5018314;28;20022;-62
2023/08/22 04:17:26;;;;;;;3.42;2.20;;;;;;;;;;5018187;28;20051;-61
2023/08/22 04:19:51;;;;;;;3.30;2.05;;;;;;;;;;5018289;28;20053;-61
2023/08/22 04:22:17;;;;;;;3.17;2.03;;;;;;;;;;5018041;28;20440;-61
2023/08/22 04:24:45;;;;;;;3.53;2.22;;;;;;;;;;5018207;28;20095;-62
2023/08/22 04:27:10;;;;;;;4.03;2.20;;;;;;;;;;5018169;28;20029;-61
2023/08/22 04:29:36;;;;;;;2.80;2.05;;;;;;;;;;5018151;28;20021;-61
2023/08/22 04:32:03;;;;;;;2.92;2.00;;;;;;;;;;5017994;28;20432;-61
2023/08/22 04:34:29;;;;;;;3.13;2.22;;;;;;;;;;5017714;28;20029;-61
2023/08/22 04:36:54;;;;;;;2.63;2.17;;;;;;;;;;5017877;28;20345;-63
2023/08/22 04:39:20;;;;;;;2.50;2.05;;;;;;;;;;5017945;28;20167;-61
2023/08/22 04:41:46;;;;;;;3.53;2.08;;;;;;;;;;5017731;28;20078;-61
2023/08/22 04:44:12;;;;;;;3.83;2.03;;;;;;;;;;5034316;28;20029;-61
2023/08/22 04:46:37;;;;;;;4.65;2.10;;;;;;;;;;5017752;28;20483;-61
2023/08/22 04:49:03;;;;;;;4.15;2.00;;;;;;;;;;5017460;28;20048;-61
2023/08/22 04:51:28;;;;;;;3.83;2.20;;;;;;;;;;5017692;28;20032;-61
2023/08/22 04:53:54;;;;;;;3.67;2.15;;;;;;;;;;5017640;28;20025;-61
2023/08/22 04:56:20;;;;;;;3.38;2.10;;;;;;;;;;5017646;28;20033;-61
2023/08/22 04:58:46;;;;;;;3.60;2.08;;;;;;;;;;5017454;28;20028;-61
2023/08/22 05:01:11;;;;;;;4.32;2.10;;;;;;;;;;5017453;28;20124;-61
2023/08/22 05:03:37;;;;;;;4.25;2.22;;;;;;;;;;5017348;28;20037;-61
2023/08/22 05:06:03;;;;;;;4.75;2.25;;;;;;;;;;5016808;28;20025;-62
2023/08/22 05:08:28;;;;;;;4.65;2.00;;;;;;;;;;5017442;28;20030;-61
2023/08/22 05:10:54;;;;;;;4.03;1.98;;;;;;;;;;5017035;28;20025;-61
2023/08/22 05:13:19;;;;;;;4.15;2.30;;;;;;;;;;5016872;28;20029;-61
2023/08/22 05:15:45;;;;;;;4.72;1.98;;;;;;;;;;5017293;28;20029;-61
2023/08/22 05:18:10;;;;;;;4.43;2.15;;;;;;;;;;5017252;28;20024;-61
2023/08/22 05:20:37;;;;;;;5.00;2.38;;;;;;;;;;5017080;28;20103;-61
2023/08/22 05:23:03;;;;;;;3.40;2.50;;;;;;;;;;5017012;28;20150;-61
2023/08/22 05:25:29;;;;;;;4.43;2.10;;;;;;;;;;5033508;28;20025;-61
2023/08/22 05:27:54;;;;;;;3.63;2.10;;;;;;;;;;5017004;28;20079;-61
2023/08/22 05:30:20;;;;;;;4.20;2.17;;;;;;;;;;5016927;28;20025;-61
2023/08/22 05:32:46;;;;;;;4.18;2.22;;;;;;;;;;5016958;28;20413;-62
2023/08/22 05:35:12;;;;;;;3.45;2.00;;;;;;;;;;5016952;28;20044;-62
2023/08/22 05:37:37;;;;;;;3.30;2.20;;;;;;;;;;5016833;28;20025;-62
2023/08/22 05:40:05;;;;;;;4.82;2.40;;;;;;;;;;5016948;28;20021;-61
2023/08/22 05:42:31;;;;;;;3.15;2.10;;;;;;;;;;5016495;28;20037;-61
2023/08/22 05:44:56;;;;;;;4.40;2.17;;;;;;;;;;5016737;28;20117;-62
2023/08/22 05:47:22;;;;;;;3.97;2.10;;;;;;;;;;5032675;28;20068;-61
2023/08/22 05:49:47;;;;;;;3.63;2.03;;;;;;;;;;5016690;28;20032;-61
2023/08/22 05:52:13;;;;;;;4.28;2.00;;;;;;;;;;5016612;28;20021;-62
2023/08/22 05:54:38;;;;;;;3.03;1.77;;;;;;;;;;5016609;28;20022;-61
2023/08/22 05:57:04;;;;;;;3.72;2.28;;;;;;;;;;5016528;28;20035;-61
2023/08/22 05:59:29;;;;;;;3.53;2.05;;;;;;;;;;5016312;28;20021;-61
2023/08/22 06:01:55;;;;;;;3.20;2.03;;;;;;;;;;5016356;28;20025;-63
2023/08/22 06:04:21;;;;;;;3.72;2.00;;;;;;;;;;5016527;28;20045;-61
2023/08/22 06:06:46;;;;;;;2.78;1.70;;;;;;;;;;5016390;28;20021;-61
2023/08/22 06:09:12;;;;;;;3.17;2.10;;;;;;;;;;5016382;28;20032;-62
2023/08/22 06:11:37;;;;;;;4.50;2.30;;;;;;;;;;5016137;28;20087;-63
2023/08/22 06:14:03;;;;;;;3.95;2.30;;;;;;;;;;5016302;28;20021;-64
2023/08/22 06:16:29;;;;;;;2.92;1.80;;;;;;;;;;5015559;28;20124;-62
2023/08/22 06:18:54;;;;;;;4.82;2.20;;;;;;;;;;5016237;28;20109;-62
2023/08/22 06:21:20;;;;;;;2.38;1.70;;;;;;;;;;5016105;28;20051;-62
2023/08/22 06:23:45;;;;;;;3.65;1.90;;;;;;;;;;5016095;28;20060;-62
2023/08/22 06:26:13;;;;;;;3.28;2.10;;;;;;;;;;5032252;28;20037;-62
2023/08/22 06:28:38;;;;;;;2.65;1.88;;;;;;;;;;5016093;28;20021;-62
2023/08/22 06:31:05;;;;;;;2.80;1.83;;;;;;;;;;4999683;28;20169;-62
2023/08/22 06:33:31;;;;;;;3.85;2.20;;;;;;;;;;5016041;28;20441;-62
2023/08/22 06:35:57;;;;;;;3.17;1.90;;;;;;;;;;5016007;28;20034;-62
2023/08/22 06:38:22;;;;;;;3.22;2.17;;;;;;;;;;5015935;28;20041;-62
2023/08/22 06:40:48;;;;;;;3.42;2.00;;;;;;;;;;5015961;28;20026;-61
2023/08/22 06:43:14;;;;;;;2.40;1.73;;;;;;;;;;5015710;28;20387;-62
2023/08/22 06:45:39;;;;;;;2.85;2.00;;;;;;;;;;5015766;28;20026;-63
2023/08/22 06:48:05;;;;;;;3.80;2.25;;;;;;;;;;5032131;28;20154;-62
2023/08/22 06:50:31;;;;;;;2.72;2.00;;;;;;;;;;5015944;28;20426;-62
2023/08/22 06:52:56;;;;;;;2.65;1.90;;;;;;;;;;5016019;28;20463;-62
2023/08/22 06:55:22;;;;;;;3.58;2.00;;;;;;;;;;5015904;28;20361;-61
2023/08/22 06:57:47;;;;;;;3.53;2.20;;;;;;;;;;5015841;28;20047;-62
2023/08/22 07:00:14;;;;;;;3.30;2.00;;;;;;;;;;5015823;28;20375;-62
2023/08/22 07:02:41;;;;;;;3.08;2.05;;;;;;;;;;5015622;28;20022;-62
2023/08/22 07:05:07;;;;;;;3.28;2.22;;;;;;;;;;4999154;28;20064;-63
2023/08/22 07:07:33;;;;;;;3.10;1.90;;;;;;;;;;5015607;28;20472;-62
2023/08/22 07:09:58;;;;;;;2.78;2.00;;;;;;;;;;5015766;28;20028;-62
2023/08/22 07:12:24;;;;;;;3.30;1.90;;;;;;;;;;5032194;28;20029;-62
2023/08/22 07:14:49;;;;;;;3.17;1.85;;;;;;;;;;5015698;28;20464;-63
2023/08/22 07:17:15;;;;;;;2.95;1.70;;;;;;;;;;5015346;28;20026;-62
2023/08/22 07:19:40;;;;;;;3.05;1.83;;;;;;;;;;5015482;28;20029;-62
2023/08/22 07:22:06;;;;;;;2.50;1.83;;;;;;;;;;5015222;28;20026;-62
2023/08/22 07:24:31;;;;;;;3.03;1.90;;;;;;;;;;5015357;28;20033;-62
2023/08/22 07:26:57;;;;;;;3.65;1.58;;;;;;;;;;5015525;28;20029;-62
2023/08/22 07:29:22;;;;;;;3.22;1.95;;;;;;;;;;5019110;28;20048;-62
2023/08/22 07:31:48;;;;;;;3.50;1.95;;;;;;;;;;5019165;28;20025;-62
2023/08/22 07:34:13;;;;;;;2.80;1.90;;;;;;;;;;5019047;28;20031;-62
2023/08/22 07:36:39;;;;;;;3.88;1.90;;;;;;;;;;5019016;28;20063;-62
2023/08/22 07:39:05;;;;;;;2.50;1.75;;;;;;;;;;5019060;28;20072;-62
2023/08/22 07:41:30;;;;;;;2.70;1.77;;;;;;;;;;5018965;28;20056;-62
2023/08/22 07:43:56;;;;;;;3.10;1.88;;;;;;;;;;5018998;28;20075;-63
2023/08/22 07:46:22;;;;;;;2.42;1.73;;;;;;;;;;5012317;28;20018;-64
2023/08/22 07:48:47;;;;;;;2.75;1.70;;;;;;;;;;5008252;28;20029;-62
2023/08/22 07:51:13;;;;;;;2.58;1.80;;;;;;;;;;5040838;28;20022;-64
2023/08/22 07:53:39;;;;;;;3.10;1.60;;;;;;;;;;5009319;28;20456;-63
2023/08/22 07:56:06;;;;;;;3.50;1.85;;;;;;;;;;5007089;28;20198;-64
2023/08/22 07:58:31;;;;;;;2.90;1.90;;;;;;;;;;5040752;28;20034;-63
2023/08/22 08:00:57;;;;;;;2.58;1.83;;;;;;;;;;5005339;28;20045;-64
2023/08/22 08:03:26;;;;;;;3.17;1.88;;;;;;;;;;5014242;28;20132;-63
2023/08/22 08:05:51;;;;;;;3.00;1.90;;;;;;;;;;5008484;28;20028;-59
2023/08/22 08:08:17;;;;;;;2.55;1.80;;;;;;;;;;5032284;28;20030;-61
2023/08/22 08:10:42;;;;;;;3.15;2.00;;;;;;;;;;5003010;28;20179;-63
2023/08/22 08:13:08;;;;;;;2.95;1.90;;;;;;;;;;5053677;28;20018;-62
2023/08/22 08:15:33;;;;;;;3.13;1.52;;;;;;;;;;5008196;28;20030;-61
2023/08/22 08:18:01;;;;;;;2.58;1.50;;;;;;;;;;5051330;28;20021;-61
2023/08/22 08:20:27;;;;;;;2.72;1.60;;;;;;;;;;5051404;28;20025;-61
2023/08/22 08:22:52;;;;;;;3.55;1.83;;;;;;;;;;5051029;28;20163;-61
2023/08/22 08:25:18;;;;;;;4.30;1.80;;;;;;;;;;5050682;28;20017;-63
2023/08/22 08:27:44;;;;;;;3.65;1.65;;;;;;;;;;5051153;28;20028;-61
2023/08/22 08:30:10;;;;;;;2.85;1.80;;;;;;;;;;5050938;28;20025;-61
2023/08/22 08:32:35;;;;;;;3.45;1.77;;;;;;;;;;5050828;28;20151;-61
2023/08/22 08:35:01;;;;;;;3.03;1.80;;;;;;;;;;5051109;28;20022;-61
2023/08/22 08:37:28;;;;;;;3.22;2.00;;;;;;;;;;5050493;28;20034;-61
2023/08/22 08:39:53;;;;;;;2.53;1.80;;;;;;;;;;5066559;28;20375;-61
2023/08/22 08:42:19;;;;;;;2.30;1.60;;;;;;;;;;5050908;28;20032;-61
2023/08/22 08:44:44;;;;;;;3.38;1.88;;;;;;;;;;5050970;28;20022;-61
2023/08/22 08:47:10;;;;;;;3.22;1.90;;;;;;;;;;5050936;28;20022;-61
2023/08/22 08:49:37;;;;;;;3.13;1.80;;;;;;;;;;5067060;28;20544;-61
2023/08/22 08:52:03;;;;;;;2.53;1.73;;;;;;;;;;5034241;28;20033;-61
2023/08/22 08:54:29;;;;;;;3.20;2.00;;;;;;;;;;5050687;28;20018;-61
2023/08/22 08:56:54;;;;;;;3.40;1.80;;;;;;;;;;5050701;28;20033;-61
2023/08/22 08:59:20;;;;;;;3.13;2.00;;;;;;;;;;5050381;28;20021;-61
2023/08/22 09:01:46;;;;;;;3.20;2.00;;;;;;;;;;5050408;28;20036;-61
2023/08/22 09:04:12;;;;;;;2.97;1.75;;;;;;;;;;5050617;28;20518;-61
2023/08/22 09:06:37;;;;;;;2.30;1.88;;;;;;;;;;5050522;28;20075;-61
2023/08/22 09:09:08;;;;;;;3.33;2.10;;;;;;;;;;5050519;28;20029;-61
2023/08/22 09:11:40;;;;;;;2.63;1.98;;;;;;;;;;5050293;28;20054;-61
2023/08/22 09:14:06;;;;;;;3.00;1.83;;;;;;;;;;5050309;28;20052;-60
2023/08/22 09:16:31;;;;;;;4.20;2.20;;;;;;;;;;5050295;28;20457;-61
2023/08/22 09:18:59;;;;;;;3.70;2.20;;;;;;;;;;5050549;28;20026;-61
2023/08/22 09:21:25;;;;;;;2.90;1.70;;;;;;;;;;5032502;28;20488;-61
2023/08/22 09:23:53;;;;;;;3.72;2.30;;;;;;;;;;5017060;28;20048;-61
2023/08/22 09:26:24;;;;;;;4.10;2.15;;;;;;;;;;5011753;28;20025;-65
2023/08/22 09:28:50;;;;;;;2.92;2.00;;;;;;;;;;5024454;28;20040;-61
2023/08/22 09:31:23;;;;;;;3.03;2.10;;;;;;;;;;5040677;28;20464;-60
2023/08/22 09:33:49;;;;;;;4.18;2.10;;;;;;;;;;5020386;28;20464;-63
2023/08/22 09:36:21;;;;;;;3.15;1.90;;;;;;;;;;5030659;28;20033;-62
2023/08/22 09:38:51;;;;;;;3.03;2.20;;;;;;;;;;5015146;28;20030;-63
2023/08/22 09:41:20;;;;;;;3.35;2.08;;;;;;;;;;5025585;28;20026;-62
2023/08/22 09:43:47;;;;;;;3.78;2.20;;;;;;;;;;5029738;28;20038;-61
2023/08/22 09:46:13;;;;;;;3.45;2.17;;;;;;;;;;4996753;28;20457;-61
2023/08/22 09:48:42;;;;;;;6.68;2.72;;;;;;;;;;4997428;28;20068;-61
2023/08/22 09:51:09;;;;;;;3.08;2.03;;;;;;;;;;5023858;28;20384;-61
2023/08/22 09:53:36;;;;;;;3.97;2.15;;;;;;;;;;5026639;28;20085;-61
2023/08/22 09:56:02;;;;;;;3.50;2.20;;;;;;;;;;5037458;28;20026;-63
2023/08/22 09:58:29;;;;;;;4.40;2.33;;;;;;;;;;5029221;28;20028;-61
2023/08/22 10:00:56;;;;;;;3.85;2.40;;;;;;;;;;5016867;28;20017;-62
2023/08/22 10:03:21;;;;;;;4.68;2.40;;;;;;;;;;5016137;28;20025;-61
2023/08/22 10:05:51;;;;;;;4.80;2.55;;;;;;;;;;5015994;28;20383;-61
2023/08/22 10:08:16;;;;;;;5.35;2.10;;;;;;;;;;5015435;28;20383;-62
2023/08/22 10:10:42;;;;;;;5.32;2.38;;;;;;;;;;5015787;28;20113;-63
2023/08/22 10:13:11;;;;;;;4.85;2.60;;;;;;;;;;5045920;28;20029;-62
2023/08/22 10:15:39;;;;;;;4.72;2.55;;;;;;;;;;5033331;28;20115;-62
2023/08/22 10:18:05;;;;;;;5.72;2.85;;;;;;;;;;5017358;28;20033;-62
2023/08/22 10:20:33;;;;;;;4.20;2.40;;;;;;;;;;5034191;28;20070;-63
2023/08/22 10:22:58;;;;;;;4.82;2.30;;;;;;;;;;5013732;28;20094;-63
2023/08/22 10:25:42;;;;;;;5.65;2.40;;;;;;;;;;5011366;28;20595;-61
2023/08/22 10:28:08;;;;;;;5.25;2.63;;;;;;;;;;4995020;28;20021;-61
2023/08/22 10:30:34;;;;;;;3.85;2.30;;;;;;;;;;4995543;28;20376;-62
2023/08/22 10:33:04;;;;;;;6.18;2.97;;;;;;;;;;5020652;28;20025;-61
2023/08/22 10:35:30;;;;;;;5.38;2.65;;;;;;;;;;5035902;28;20025;-61
2023/08/22 10:37:56;;;;;;;4.30;2.42;;;;;;;;;;5035745;28;20443;-61
2023/08/22 10:40:25;;;;;;;4.72;2.80;;;;;;;;;;5018654;28;20033;-62
2023/08/22 10:42:54;;;;;;;3.65;2.13;;;;;;;;;;5013921;28;20025;-62
2023/08/22 10:45:20;;;;;;;5.63;2.80;;;;;;;;;;5015339;28;20025;-61
2023/08/22 10:47:47;;;;;;;4.38;2.55;;;;;;;;;;5015607;28;20032;-61
2023/08/22 10:50:13;;;;;;;4.25;2.72;;;;;;;;;;5015506;28;20092;-62
2023/08/22 10:52:39;;;;;;;3.42;2.55;;;;;;;;;;5015510;28;20029;-62
2023/08/22 10:55:08;;;;;;;4.20;2.47;;;;;;;;;;5033060;28;20029;-62
2023/08/22 10:57:36;;;;;;;6.00;2.63;;;;;;;;;;5035676;28;20024;-62
2023/08/22 11:02:35;;;;;;;4.10;2.30;;;;;;;;;;5052640;28;20028;-62
2023/08/22 11:05:08;;;;;;;9.18;3.63;;;;;;;;;;5039597;28;20033;-62
2023/08/22 11:07:34;;;;;;;36.47;9.38;;;;;;;;;;5015728;28;20480;-61
2023/08/22 11:09:59;;;;;;;34.70;10.18;;;;;;;;;;5019686;28;20031;-62
2023/08/22 11:12:26;;;;;;;24.25;8.70;;;;;;;;;;5020004;28;20379;-63
2023/08/22 11:14:52;;;;;;;24.13;7.72;;;;;;;;;;5003247;28;20148;-62
2023/08/22 11:17:18;;;;;;;23.60;7.82;;;;;;;;;;5019494;28;20522;-62
2023/08/22 11:19:44;;;;;;;15.77;6.90;;;;;;;;;;5029068;28;20037;-62
2023/08/22 11:22:10;;;;;;;27.13;8.15;;;;;;;;;;5039118;28;20464;-62
2023/08/22 11:24:36;;;;;;;19.58;7.90;;;;;;;;;;5037631;28;20032;-62
2023/08/22 11:27:03;;;;;;;20.15;6.38;;;;;;;;;;5039152;28;20425;-62
2023/08/22 11:29:39;;;;;;;15.25;6.07;;;;;;;;;;5055577;28;20025;-62
2023/08/22 11:32:04;;;;;;;16.10;7.13;;;;;;;;;;5022625;28;20147;-62
2023/08/22 11:34:30;;;;;;;19.05;7.32;;;;;;;;;;5039454;28;20127;-63
2023/08/22 11:36:57;;;;;;;15.45;6.72;;;;;;;;;;4999618;28;20465;-62
2023/08/22 11:39:22;;;;;;;15.73;5.35;;;;;;;;;;5015818;28;20120;-62
2023/08/22 11:41:48;;;;;;;15.52;5.53;;;;;;;;;;5015984;28;20172;-62
2023/08/22 11:44:14;;;;;;;13.90;5.43;;;;;;;;;;5023977;28;20373;-62
2023/08/22 11:46:40;;;;;;;11.00;4.57;;;;;;;;;;5018426;28;20480;-62
2023/08/22 11:49:06;;;;;;;10.45;5.00;;;;;;;;;;5025691;28;20032;-62
2023/08/22 11:51:32;;;;;;;10.35;5.10;;;;;;;;;;5038357;28;20059;-62
2023/08/22 11:53:57;;;;;;;16.00;5.03;;;;;;;;;;5024610;28;20072;-64
2023/08/22 11:56:23;;;;;;;13.10;5.47;;;;;;;;;;5018915;28;20073;-64
2023/08/22 11:58:51;;;;;;;13.30;5.05;;;;;;;;;;5018736;28;20041;-65
2023/08/22 12:01:17;;;;;;;12.55;4.88;;;;;;;;;;5018267;28;20029;-65
2023/08/22 12:03:46;;;;;;;13.43;5.55;;;;;;;;;;5018087;28;20060;-65
2023/08/22 12:06:12;;;;;;;12.45;5.00;;;;;;;;;;5018313;28;20443;-64
2023/08/22 12:08:37;;;;;;;11.18;4.90;;;;;;;;;;5018386;28;20026;-65
2023/08/22 12:11:03;;;;;;;12.63;5.38;;;;;;;;;;5018367;28;20033;-63
2023/08/22 12:13:29;;;;;;;11.35;4.43;;;;;;;;;;5022272;28;20095;-63
2023/08/22 12:15:55;;;;;;;11.00;4.60;;;;;;;;;;5013143;28;20022;-64
2023/08/22 12:18:28;;;;;;;13.18;4.90;;;;;;;;;;5039319;28;20056;-65
2023/08/22 12:20:53;;;;;;;13.30;4.88;;;;;;;;;;5008245;28;20021;-65
2023/08/22 12:23:19;;;;;;;9.43;3.80;;;;;;;;;;5004681;28;20535;-65
2023/08/22 12:25:44;;;;;;;10.18;4.05;;;;;;;;;;5021721;28;20108;-65
2023/08/22 12:28:10;;;;;;;12.02;4.32;;;;;;;;;;5003883;28;20053;-66
2023/08/22 12:30:38;;;;;;;8.15;4.00;;;;;;;;;;5007626;28;20033;-66
2023/08/22 12:33:10;;;;;;;11.63;4.38;;;;;;;;;;4999855;28;20445;-65
2023/08/22 12:35:36;;;;;;;9.88;4.10;;;;;;;;;;4999168;28;20527;-65
2023/08/22 12:38:02;;;;;;;7.97;4.00;;;;;;;;;;4998290;28;20028;-65
2023/08/22 12:40:28;;;;;;;8.55;3.90;;;;;;;;;;4998262;28;20382;-66
2023/08/22 12:42:54;;;;;;;10.20;4.20;;;;;;;;;;4998221;28;20069;-65
2023/08/22 12:45:21;;;;;;;8.98;3.78;;;;;;;;;;5013984;28;20025;-65
2023/08/22 12:47:48;;;;;;;10.55;3.80;;;;;;;;;;5048451;28;20460;-66
2023/08/22 12:50:14;;;;;;;5.90;3.38;;;;;;;;;;5017811;28;20384;-66
2023/08/22 12:52:40;;;;;;;7.07;3.53;;;;;;;;;;5017594;28;20036;-66
2023/08/22 12:55:07;;;;;;;6.03;3.20;;;;;;;;;;5017505;28;20022;-65
2023/08/22 12:57:40;;;;;;;6.75;3.10;;;;;;;;;;5033579;28;20391;-66
2023/08/22 13:00:08;;;;;;;10.15;4.00;;;;;;;;;;5017472;28;20483;-65
2023/08/22 13:02:35;;;;;;;8.38;3.42;;;;;;;;;;5017326;28;20025;-65
2023/08/22 13:05:01;;;;;;;8.23;3.40;;;;;;;;;;5017182;28;20041;-65
2023/08/22 13:07:27;;;;;;;6.63;3.40;;;;;;;;;;5017370;28;20020;-66
2023/08/22 13:09:52;;;;;;;9.07;3.20;;;;;;;;;;5017380;28;20539;-65
2023/08/22 13:12:18;;;;;;;8.55;3.40;;;;;;;;;;5028483;28;20032;-64
2023/08/22 13:14:46;;;;;;;7.35;3.15;;;;;;;;;;5027365;28;20029;-63
2023/08/22 13:17:12;;;;;;;5.88;3.10;;;;;;;;;;5036972;28;20024;-64
2023/08/22 13:19:40;;;;;;;7.18;3.42;;;;;;;;;;5025793;28;20416;-63
2023/08/22 13:22:05;;;;;;;7.95;3.45;;;;;;;;;;5019754;28;20052;-63
2023/08/22 13:24:32;;;;;;;6.85;2.92;;;;;;;;;;5036791;28;20025;-63
2023/08/22 13:26:58;;;;;;;5.95;3.03;;;;;;;;;;5020029;28;20132;-63
2023/08/22 13:29:24;;;;;;;6.15;3.20;;;;;;;;;;5025212;28;20108;-65
2023/08/22 13:31:50;;;;;;;6.65;3.40;;;;;;;;;;5018669;28;20357;-65
2023/08/22 13:34:15;;;;;;;9.10;3.47;;;;;;;;;;5016544;28;20105;-63
2023/08/22 13:36:41;;;;;;;4.95;2.80;;;;;;;;;;5016766;28;20049;-63
2023/08/22 13:39:07;;;;;;;6.22;2.90;;;;;;;;;;5016690;28;20380;-64
2023/08/22 13:41:35;;;;;;;6.47;3.10;;;;;;;;;;5017632;28;20460;-63
2023/08/22 13:44:00;;;;;;;7.10;3.00;;;;;;;;;;5016763;28;20056;-64
2023/08/22 13:46:27;;;;;;;6.57;2.85;;;;;;;;;;5016026;28;20376;-63
2023/08/22 13:48:53;;;;;;;6.97;2.80;;;;;;;;;;5016299;28;20472;-65
2023/08/22 13:51:18;;;;;;;5.03;3.00;;;;;;;;;;5016155;28;20022;-63
2023/08/22 13:53:44;;;;;;;7.25;3.08;;;;;;;;;;5016679;28;20369;-66
2023/08/22 13:56:12;;;;;;;7.18;2.90;;;;;;;;;;5033103;28;20044;-63
2023/08/22 13:58:38;;;;;;;7.97;3.00;;;;;;;;;;5028263;28;20124;-63
2023/08/22 14:01:04;;;;;;;7.32;3.10;;;;;;;;;;5024368;28;20025;-63
2023/08/22 14:03:29;;;;;;;6.38;2.90;;;;;;;;;;5036010;28;20052;-63
2023/08/22 14:05:55;;;;;;;4.95;2.50;;;;;;;;;;5035312;28;20029;-63
2023/08/22 14:08:20;;;;;;;5.78;2.65;;;;;;;;;;5036235;28;20029;-64
2023/08/22 14:10:46;;;;;;;5.20;2.75;;;;;;;;;;5036134;28;20029;-64
2023/08/22 14:13:11;;;;;;;5.00;2.70;;;;;;;;;;5026411;28;20025;-64
2023/08/22 14:15:37;;;;;;;6.95;2.83;;;;;;;;;;5016325;28;20486;-63
2023/08/22 14:18:03;;;;;;;6.47;2.50;;;;;;;;;;5016213;28;20029;-63
2023/08/22 14:20:28;;;;;;;5.28;2.65;;;;;;;;;;5016279;28;20044;-63
2023/08/22 14:22:54;;;;;;;5.43;2.75;;;;;;;;;;5016298;28;20116;-64
2023/08/22 14:25:23;;;;;;;4.35;2.30;;;;;;;;;;5016048;28;20364;-63
2023/08/22 14:27:49;;;;;;;5.30;2.78;;;;;;;;;;5023536;28;20028;-63
2023/08/22 14:30:14;;;;;;;4.45;2.15;;;;;;;;;;5035945;28;20158;-63
2023/08/22 14:32:40;;;;;;;5.57;2.70;;;;;;;;;;5032252;28;20471;-65
2023/08/22 14:35:06;;;;;;;5.60;2.63;;;;;;;;;;5026643;28;20040;-65
2023/08/22 14:37:33;;;;;;;5.50;2.88;;;;;;;;;;5014042;28;20028;-66